createdAt,value
2022-10-25T00:01:19.395Z,14.86
2022-10-25T00:03:47.171Z,14.88
2022-10-25T00:06:15.244Z,14.86
2022-10-25T00:08:42.911Z,14.82
2022-10-25T00:11:19.559Z,14.78
2022-10-25T00:13:49.489Z,14.72
2022-10-25T00:16:18.896Z,14.68
2022-10-25T00:18:51.472Z,14.64
2022-10-25T00:21:20.980Z,14.63
2022-10-25T00:23:49.386Z,14.65
2022-10-25T00:26:17.222Z,14.65
2022-10-25T00:28:44.811Z,14.59
2022-10-25T00:31:15.454Z,14.63
2022-10-25T00:33:44.518Z,14.59
2022-10-25T00:36:13.714Z,14.60
2022-10-25T00:38:41.908Z,14.58
2022-10-25T00:41:10.698Z,14.62
2022-10-25T00:43:40.814Z,14.61
2022-10-25T00:46:14.794Z,14.60
2022-10-25T00:48:46.570Z,14.51
2022-10-25T00:51:14.222Z,14.44
2022-10-25T00:53:43.518Z,14.40
2022-10-25T00:56:17.155Z,14.41
2022-10-25T00:58:48.175Z,14.39
2022-10-25T01:01:17.508Z,14.41
2022-10-25T01:03:46.757Z,14.43
2022-10-25T01:06:19.689Z,14.43
2022-10-25T01:08:49.247Z,14.44
2022-10-25T01:13:50.208Z,14.41
2022-10-25T01:16:27.631Z,14.45
2022-10-25T01:19:03.427Z,14.43
2022-10-25T01:24:59.027Z,14.34
2022-10-25T01:28:00.634Z,14.32
2022-10-25T01:30:48.846Z,14.32
2022-10-25T01:33:23.696Z,14.28
2022-10-25T01:35:58.568Z,14.30
2022-10-25T01:38:36.297Z,14.32
2022-10-25T01:41:13.744Z,14.28
2022-10-25T01:43:49.656Z,14.26
2022-10-25T01:46:26.531Z,14.29
2022-10-25T01:49:02.209Z,14.33
2022-10-25T01:51:29.858Z,14.29
2022-10-25T01:53:57.459Z,14.24
2022-10-25T01:56:28.958Z,14.19
2022-10-25T01:59:17.463Z,14.17
2022-10-25T02:01:59.482Z,14.18
2022-10-25T02:04:40.469Z,14.21
2022-10-25T02:07:12.468Z,14.28
2022-10-25T02:09:46.568Z,14.31
2022-10-25T02:12:19.427Z,14.26
2022-10-25T02:14:57.785Z,14.31
2022-10-25T02:17:28.486Z,14.26
2022-10-25T02:20:00.233Z,14.21
2022-10-25T02:22:32.878Z,14.24
2022-10-25T02:25:02.328Z,14.22
2022-10-25T02:27:32.331Z,14.27
2022-10-25T02:30:00.890Z,14.28
2022-10-25T02:32:31.476Z,14.21
2022-10-25T02:34:59.221Z,14.15
2022-10-25T02:37:26.819Z,14.22
2022-10-25T02:39:54.481Z,14.26
2022-10-25T02:42:22.038Z,14.23
2022-10-25T02:44:49.643Z,14.26
2022-10-25T02:47:17.249Z,14.38
2022-10-25T02:49:46.140Z,14.38
2022-10-25T02:52:13.735Z,14.30
2022-10-25T02:54:41.431Z,14.34
2022-10-25T02:57:09.020Z,14.32
2022-10-25T02:59:36.578Z,14.36
2022-10-25T03:02:04.178Z,14.28
2022-10-25T03:04:31.734Z,14.36
2022-10-25T03:07:00.627Z,14.31
2022-10-25T03:09:28.221Z,14.23
2022-10-25T03:11:55.777Z,14.30
2022-10-25T03:14:23.388Z,14.28
2022-10-25T03:16:50.976Z,14.25
2022-10-25T03:19:18.534Z,14.19
2022-10-25T03:21:46.112Z,14.13
2022-10-25T03:24:15.118Z,14.19
2022-10-25T03:26:42.697Z,14.33
2022-10-25T03:29:10.841Z,14.40
2022-10-25T03:31:38.460Z,14.35
2022-10-25T03:34:06.020Z,14.34
2022-10-25T03:36:33.641Z,14.34
2022-10-25T03:39:01.254Z,14.31
2022-10-25T03:41:30.129Z,14.27
2022-10-25T03:43:57.690Z,14.27
2022-10-25T03:46:25.256Z,14.27
2022-10-25T03:48:52.838Z,14.19
2022-10-25T03:51:20.420Z,14.25
2022-10-25T03:53:48.078Z,14.27
2022-10-25T03:56:15.686Z,14.30
2022-10-25T03:58:44.622Z,14.37
2022-10-25T04:01:12.436Z,14.33
2022-10-25T04:03:40.060Z,14.27
2022-10-25T04:06:08.083Z,14.31
2022-10-25T04:08:35.725Z,14.40
2022-10-25T04:11:03.307Z,14.32
2022-10-25T04:13:30.954Z,14.23
2022-10-25T04:15:59.926Z,14.22
2022-10-25T04:18:27.488Z,14.28
2022-10-25T04:20:55.049Z,14.26
2022-10-25T04:23:22.719Z,14.24
2022-10-25T04:25:50.906Z,14.29
2022-10-25T04:28:18.494Z,14.28
2022-10-25T04:30:46.102Z,14.27
2022-10-25T04:33:15.077Z,14.39
2022-10-25T04:35:42.665Z,14.40
2022-10-25T04:38:11.023Z,14.37
2022-10-25T04:40:38.666Z,14.44
2022-10-25T04:43:06.301Z,14.35
2022-10-25T04:45:33.923Z,14.32
2022-10-25T04:48:01.534Z,14.29
2022-10-25T04:50:30.553Z,14.25
2022-10-25T04:52:58.092Z,14.21
2022-10-25T04:55:25.671Z,14.19
2022-10-25T04:57:53.223Z,14.16
2022-10-25T05:00:20.806Z,14.14
2022-10-25T05:02:48.735Z,14.07
2022-10-25T05:05:16.738Z,14.01
2022-10-25T05:07:45.869Z,13.98
2022-10-25T05:10:13.530Z,14.00
2022-10-25T05:12:41.158Z,13.97
2022-10-25T05:15:09.823Z,13.95
2022-10-25T05:17:37.748Z,13.88
2022-10-25T05:20:06.438Z,13.88
2022-10-25T05:22:34.076Z,13.83
2022-10-25T05:25:02.992Z,13.83
2022-10-25T05:27:30.593Z,13.73
2022-10-25T05:29:58.192Z,13.76
2022-10-25T05:32:25.858Z,13.65
2022-10-25T05:34:53.413Z,13.67
2022-10-25T05:37:21.011Z,13.66
2022-10-25T05:39:48.569Z,13.66
2022-10-25T05:42:17.484Z,13.65
2022-10-25T05:44:45.140Z,13.68
2022-10-25T05:47:13.316Z,13.74
2022-10-25T05:49:42.273Z,13.72
2022-10-25T05:52:10.391Z,13.78
2022-10-25T05:54:37.965Z,13.71
2022-10-25T05:57:05.538Z,13.76
2022-10-25T05:59:34.431Z,13.78
2022-10-25T06:02:02.141Z,13.79
2022-10-25T06:04:30.056Z,13.78
2022-10-25T06:06:58.031Z,13.79
2022-10-25T06:09:25.559Z,13.82
2022-10-25T06:11:53.148Z,13.87
2022-10-25T06:14:20.704Z,13.92
2022-10-25T06:16:49.677Z,13.98
2022-10-25T06:19:17.286Z,13.92
2022-10-25T06:21:45.011Z,13.98
2022-10-25T06:24:12.852Z,14.01
2022-10-25T06:26:40.432Z,13.98
2022-10-25T06:29:08.351Z,14.00
2022-10-25T06:31:35.913Z,14.02
2022-10-25T06:34:04.942Z,13.93
2022-10-25T06:36:32.859Z,13.90
2022-10-25T06:39:05.740Z,14.00
2022-10-25T06:41:36.381Z,13.99
2022-10-25T06:44:06.425Z,13.98
2022-10-25T06:46:57.834Z,14.04
2022-10-25T06:49:25.757Z,14.02
2022-10-25T06:51:53.371Z,14.11
2022-10-25T06:54:21.015Z,14.22
2022-10-25T06:56:48.995Z,14.31
2022-10-25T06:59:17.096Z,14.37
2022-10-25T07:01:44.780Z,14.55
2022-10-25T07:04:12.418Z,14.61
2022-10-25T07:06:41.424Z,14.65
2022-10-25T07:09:10.208Z,14.67
2022-10-25T07:11:37.970Z,14.79
2022-10-25T07:14:05.810Z,14.80
2022-10-25T07:16:33.494Z,14.90
2022-10-25T07:19:01.798Z,14.88
2022-10-25T07:21:31.103Z,14.82
2022-10-25T07:24:00.167Z,14.75
2022-10-25T07:26:30.849Z,14.69
2022-10-25T07:29:01.200Z,14.68
2022-10-25T07:31:31.399Z,14.72
2022-10-25T07:34:00.953Z,14.75
2022-10-25T07:36:29.067Z,14.82
2022-10-25T07:38:57.001Z,14.92
2022-10-25T07:41:26.911Z,15.12
2022-10-25T07:43:55.333Z,15.32
2022-10-25T07:46:23.302Z,15.51
2022-10-25T07:48:52.466Z,15.59
2022-10-25T07:51:20.105Z,15.73
2022-10-25T07:53:47.847Z,15.77
2022-10-25T07:56:20.676Z,15.83
2022-10-25T07:58:52.784Z,15.95
2022-10-25T08:01:23.224Z,16.09
2022-10-25T08:03:51.245Z,16.30
2022-10-25T08:06:19.167Z,16.38
2022-10-25T08:08:47.347Z,16.48
2022-10-25T08:11:15.308Z,16.61
2022-10-25T08:13:42.917Z,16.70
2022-10-25T08:16:11.910Z,16.79
2022-10-25T08:18:39.473Z,16.83
2022-10-25T08:21:07.179Z,16.90
2022-10-25T08:23:34.845Z,17.11
2022-10-25T08:26:02.813Z,17.17
2022-10-25T08:28:31.654Z,17.46
2022-10-25T08:31:00.761Z,17.61
2022-10-25T08:33:30.332Z,17.77
2022-10-25T08:36:01.205Z,17.88
2022-10-25T08:38:28.798Z,17.97
2022-10-25T08:41:05.888Z,18.08
2022-10-25T08:43:49.983Z,18.12
2022-10-25T08:46:21.281Z,18.04
2022-10-25T08:48:56.380Z,18.12
2022-10-25T08:51:28.388Z,18.04
2022-10-25T08:53:59.781Z,17.96
2022-10-25T08:56:29.610Z,18.22
2022-10-25T08:59:00.776Z,18.36
2022-10-25T09:01:32.530Z,18.27
2022-10-25T09:04:01.754Z,18.32
2022-10-25T09:06:35.592Z,19.34
2022-10-25T09:09:16.103Z,20.51
2022-10-25T09:11:53.651Z,20.81
2022-10-25T09:14:33.272Z,20.70
2022-10-25T09:17:08.387Z,21.62
2022-10-25T09:19:44.280Z,21.89
2022-10-25T09:22:19.368Z,21.28
2022-10-25T09:24:56.898Z,20.45
2022-10-25T09:27:32.920Z,19.87
2022-10-25T09:30:07.260Z,19.64
2022-10-25T09:32:40.363Z,19.83
2022-10-25T09:35:17.697Z,21.53
2022-10-25T09:37:49.776Z,21.85
2022-10-25T09:40:21.755Z,22.06
2022-10-25T09:42:53.586Z,22.36
2022-10-25T09:45:25.737Z,22.75
2022-10-25T09:48:00.735Z,22.83
2022-10-25T09:50:33.135Z,22.54
2022-10-25T09:53:11.099Z,21.68
2022-10-25T09:55:47.434Z,21.01
2022-10-25T09:58:20.499Z,20.58
2022-10-25T10:00:48.591Z,20.09
2022-10-25T10:03:16.394Z,19.68
2022-10-25T10:05:51.644Z,19.37
2022-10-25T10:08:19.529Z,19.11
2022-10-25T10:10:49.494Z,18.98
2022-10-25T10:13:25.259Z,18.93
2022-10-25T10:15:57.411Z,18.78
2022-10-25T10:18:27.622Z,18.81
2022-10-25T10:21:19.835Z,18.66
2022-10-25T10:23:53.611Z,18.56
2022-10-25T10:26:29.321Z,18.52
2022-10-25T10:29:08.876Z,18.42
2022-10-25T10:31:38.847Z,18.31
2022-10-25T10:34:08.444Z,18.21
2022-10-25T10:36:37.546Z,18.17
2022-10-25T10:39:21.095Z,18.06
2022-10-25T10:42:00.812Z,18.03
2022-10-25T10:44:28.586Z,17.91
2022-10-25T10:46:56.732Z,17.85
2022-10-25T10:49:36.467Z,17.85
2022-10-25T10:52:06.532Z,17.87
2022-10-25T10:54:38.827Z,18.02
2022-10-25T10:57:08.176Z,18.11
2022-10-25T10:59:44.036Z,18.10
2022-10-25T11:02:29.497Z,17.98
2022-10-25T11:04:57.992Z,17.94
2022-10-25T11:07:31.625Z,18.00
2022-10-25T11:10:20.385Z,17.92
2022-10-25T11:13:06.273Z,17.88
2022-10-25T11:15:43.834Z,17.81
2022-10-25T11:18:13.968Z,17.82
2022-10-25T11:20:51.884Z,17.85
2022-10-25T11:23:29.795Z,17.90
2022-10-25T11:26:02.921Z,18.00
2022-10-25T11:28:45.334Z,18.05
2022-10-25T11:31:27.772Z,18.12
2022-10-25T11:34:09.820Z,18.11
2022-10-25T11:36:59.217Z,18.04
2022-10-25T11:39:48.186Z,18.09
2022-10-25T11:42:37.025Z,18.18
2022-10-25T11:45:22.751Z,18.63
2022-10-25T11:48:02.773Z,18.66
2022-10-25T11:50:40.008Z,18.72
2022-10-25T11:53:31.218Z,18.74
2022-10-25T11:56:05.919Z,18.65
2022-10-25T11:58:44.571Z,18.65
2022-10-25T12:01:28.490Z,18.65
2022-10-25T12:04:10.865Z,18.59
2022-10-25T12:06:46.685Z,18.59
2022-10-25T12:09:25.908Z,18.73
2022-10-25T12:12:00.612Z,18.70
2022-10-25T12:14:33.148Z,18.66
2022-10-25T12:17:02.836Z,18.72
2022-10-25T12:19:36.483Z,18.69
2022-10-25T12:22:07.619Z,18.60
2022-10-25T12:24:40.405Z,18.44
2022-10-25T12:27:11.709Z,18.41
2022-10-25T12:29:43.140Z,18.46
2022-10-25T12:32:16.035Z,18.48
2022-10-25T12:34:46.733Z,18.55
2022-10-25T12:37:22.476Z,18.61
2022-10-25T12:39:50.181Z,18.68
2022-10-25T12:42:23.276Z,18.69
2022-10-25T12:45:13.457Z,18.75
2022-10-25T12:47:54.872Z,18.87
2022-10-25T12:51:00.403Z,18.96
2022-10-25T12:53:59.755Z,18.81
2022-10-25T12:56:39.468Z,18.73
2022-10-25T12:59:17.629Z,18.70
2022-10-25T13:02:05.052Z,18.72
2022-10-25T13:04:55.192Z,18.78
2022-10-25T13:07:25.138Z,18.70
2022-10-25T13:09:53.463Z,18.69
2022-10-25T13:12:26.229Z,18.71
2022-10-25T13:14:57.138Z,18.79
2022-10-25T13:18:02.311Z,18.93
2022-10-25T13:20:47.715Z,19.22
2022-10-25T13:24:00.547Z,19.39
2022-10-25T13:26:31.941Z,19.49
2022-10-25T13:29:02.444Z,19.57
2022-10-25T13:31:47.304Z,19.72
2022-10-25T13:34:37.020Z,19.75
2022-10-25T13:37:44.608Z,19.72
2022-10-25T13:40:30.854Z,19.74
2022-10-25T13:43:01.993Z,19.75
2022-10-25T13:45:45.649Z,19.72
2022-10-25T13:48:29.725Z,19.75
2022-10-25T13:50:59.622Z,19.70
2022-10-25T13:53:35.986Z,19.68
2022-10-25T13:56:06.762Z,19.70
2022-10-25T13:58:51.458Z,19.71
2022-10-25T14:01:57.318Z,19.70
2022-10-25T14:04:37.195Z,19.61
2022-10-25T14:07:50.708Z,19.58
2022-10-25T14:10:25.114Z,19.64
2022-10-25T14:12:58.171Z,19.68
2022-10-25T14:15:42.319Z,19.64
2022-10-25T14:18:18.481Z,19.56
2022-10-25T14:20:50.142Z,19.53
2022-10-25T14:23:22.887Z,19.47
2022-10-25T14:25:53.763Z,19.41
2022-10-25T14:28:26.564Z,19.38
2022-10-25T14:30:56.436Z,19.35
2022-10-25T14:33:29.720Z,19.28
2022-10-25T14:36:07.860Z,19.20
2022-10-25T14:38:39.534Z,19.11
2022-10-25T14:41:13.378Z,19.04
2022-10-25T14:43:42.673Z,19.04
2022-10-25T14:46:17.855Z,18.98
2022-10-25T14:48:47.734Z,18.94
2022-10-25T14:51:21.736Z,18.88
2022-10-25T14:53:53.825Z,18.90
2022-10-25T14:56:24.980Z,18.85
2022-10-25T14:58:52.927Z,18.80
2022-10-25T15:01:22.734Z,18.77
2022-10-25T15:03:53.976Z,18.77
2022-10-25T15:06:26.202Z,18.73
2022-10-25T15:09:14.847Z,18.71
2022-10-25T15:12:15.913Z,18.66
2022-10-25T15:14:43.608Z,18.64
2022-10-25T15:17:27.102Z,18.61
2022-10-25T15:20:07.222Z,18.60
2022-10-25T15:22:44.150Z,18.52
2022-10-25T15:25:20.436Z,18.48
2022-10-25T15:27:48.858Z,18.42
2022-10-25T15:30:34.809Z,18.38
2022-10-25T15:33:02.720Z,18.34
2022-10-25T15:35:32.215Z,18.33
2022-10-25T15:38:01.172Z,18.28
2022-10-25T15:40:28.763Z,18.26
2022-10-25T15:42:56.321Z,18.23
2022-10-25T15:45:23.946Z,18.17
2022-10-25T15:47:53.415Z,18.11
2022-10-25T15:50:22.673Z,18.06
2022-10-25T15:52:50.473Z,18.02
2022-10-25T15:55:22.130Z,17.97
2022-10-25T15:57:50.834Z,17.93
2022-10-25T16:00:27.263Z,17.91
2022-10-25T16:02:56.525Z,17.90
2022-10-25T16:05:26.935Z,17.88
2022-10-25T16:07:54.957Z,17.83
2022-10-25T16:10:26.008Z,17.78
2022-10-25T16:12:59.558Z,17.76
2022-10-25T16:15:27.621Z,17.75
2022-10-25T16:17:55.139Z,17.75
2022-10-25T16:20:25.229Z,17.77
2022-10-25T16:22:53.145Z,17.74
2022-10-25T16:25:21.872Z,17.65
2022-10-25T16:27:50.871Z,17.61
2022-10-25T16:30:21.080Z,17.54
2022-10-25T16:32:49.265Z,17.51
2022-10-25T16:35:24.026Z,17.48
2022-10-25T16:37:51.893Z,17.48
2022-10-25T16:40:22.530Z,17.52
2022-10-25T16:42:51.647Z,17.53
2022-10-25T16:45:23.607Z,17.54
2022-10-25T16:47:51.247Z,17.55
2022-10-25T16:50:23.046Z,17.55
2022-10-25T16:52:50.903Z,17.53
2022-10-25T16:55:19.443Z,17.53
2022-10-25T17:00:18.506Z,17.51
2022-10-25T17:02:46.405Z,17.48
2022-10-25T17:05:19.526Z,17.44
2022-10-25T17:07:47.206Z,17.42
2022-10-25T17:10:15.410Z,17.41
2022-10-25T17:12:44.539Z,17.32
2022-10-25T17:15:13.262Z,17.22
2022-10-25T17:17:42.542Z,17.18
2022-10-25T17:20:11.632Z,17.17
2022-10-25T17:22:39.802Z,17.12
2022-10-25T17:25:09.464Z,17.12
2022-10-25T17:27:41.695Z,17.05
2022-10-25T17:30:11.021Z,16.99
2022-10-25T17:32:39.332Z,17.00
2022-10-25T17:35:08.913Z,17.04
2022-10-25T17:37:39.170Z,17.03
2022-10-25T17:40:09.946Z,16.99
2022-10-25T17:42:37.670Z,16.92
2022-10-25T17:45:06.390Z,16.95
2022-10-25T17:47:34.083Z,16.93
2022-10-25T17:50:01.756Z,16.87
2022-10-25T17:52:30.948Z,16.85
2022-10-25T17:54:58.636Z,16.87
2022-10-25T17:57:26.387Z,16.84
2022-10-25T17:59:54.150Z,16.87
2022-10-25T18:02:21.989Z,16.85
2022-10-25T18:05:02.232Z,16.89
2022-10-25T18:07:39.075Z,16.87
2022-10-25T18:10:07.330Z,16.83
2022-10-25T18:12:34.993Z,16.85
2022-10-25T18:15:02.809Z,16.85
2022-10-25T18:17:30.461Z,16.85
2022-10-25T18:19:58.160Z,16.81
2022-10-25T18:22:26.244Z,16.75
2022-10-25T18:24:55.175Z,16.72
2022-10-25T18:27:22.928Z,16.72
2022-10-25T18:29:50.549Z,16.63
2022-10-25T18:32:18.152Z,16.52
2022-10-25T18:34:45.846Z,16.45
2022-10-25T18:37:13.512Z,16.46
2022-10-25T18:39:41.101Z,16.48
2022-10-25T18:42:10.013Z,16.52
2022-10-25T18:44:39.982Z,16.54
2022-10-25T18:47:07.746Z,16.53
2022-10-25T18:49:35.996Z,16.51
2022-10-25T18:52:03.725Z,16.50
2022-10-25T18:54:31.394Z,16.48
2022-10-25T18:56:59.021Z,16.34
2022-10-25T18:59:28.022Z,16.21
2022-10-25T19:01:55.887Z,16.12
2022-10-25T19:04:23.631Z,16.03
2022-10-25T19:06:51.202Z,16.00
2022-10-25T19:09:18.764Z,16.00
2022-10-25T19:11:46.454Z,15.93
2022-10-25T19:14:14.225Z,15.98
2022-10-25T19:16:43.663Z,15.95
2022-10-25T19:19:11.913Z,15.89
2022-10-25T19:21:39.597Z,15.82
2022-10-25T19:24:11.735Z,15.84
2022-10-25T19:26:39.469Z,15.79
2022-10-25T19:29:07.337Z,15.82
2022-10-25T19:31:34.978Z,15.79
2022-10-25T19:34:04.093Z,15.77
2022-10-25T19:36:32.078Z,15.74
2022-10-25T19:39:00.169Z,15.72
2022-10-25T19:41:29.203Z,15.73
2022-10-25T19:43:58.693Z,15.80
2022-10-25T19:46:26.557Z,15.78
2022-10-25T19:48:56.289Z,15.81
2022-10-25T19:51:25.404Z,15.80
2022-10-25T19:53:53.222Z,15.74
2022-10-25T19:56:22.777Z,15.75
2022-10-25T19:58:51.419Z,15.69
2022-10-25T20:01:20.936Z,15.61
2022-10-25T20:03:50.791Z,15.56
2022-10-25T20:06:24.280Z,15.52
2022-10-25T20:08:55.193Z,15.43
2022-10-25T20:11:24.415Z,15.41
2022-10-25T20:13:53.730Z,15.40
2022-10-25T20:16:21.444Z,15.40
2022-10-25T20:18:49.179Z,15.45
2022-10-25T20:21:19.878Z,15.47
2022-10-25T20:23:50.689Z,15.41
2022-10-25T20:26:21.636Z,15.36
2022-10-25T20:28:49.860Z,15.43
2022-10-25T20:31:19.380Z,15.47
2022-10-25T20:33:47.223Z,15.43
2022-10-25T20:36:15.284Z,15.39
2022-10-25T20:38:43.119Z,15.44
2022-10-25T20:41:12.628Z,15.37
2022-10-25T20:43:43.084Z,15.33
2022-10-25T20:46:10.856Z,15.33
2022-10-25T20:48:38.529Z,15.31
2022-10-25T20:51:07.857Z,15.29
2022-10-25T20:53:36.775Z,15.25
2022-10-25T20:56:04.674Z,15.22
2022-10-25T20:58:32.588Z,15.48
2022-10-25T21:01:01.936Z,15.38
2022-10-25T21:03:31.499Z,15.30
2022-10-25T21:06:00.820Z,15.25
2022-10-25T21:08:28.466Z,15.28
2022-10-25T21:10:57.782Z,15.23
2022-10-25T21:13:26.479Z,15.23
2022-10-25T21:15:54.413Z,15.21
2022-10-25T21:18:27.808Z,15.17
2022-10-25T21:20:56.388Z,15.12
2022-10-25T21:23:24.024Z,15.07
2022-10-25T21:25:58.323Z,15.04
2022-10-25T21:28:26.308Z,15.03
2022-10-25T21:30:54.164Z,15.01
2022-10-25T21:33:23.290Z,15.06
2022-10-25T21:35:50.875Z,15.05
2022-10-25T21:38:18.528Z,15.03
2022-10-25T21:40:46.121Z,15.04
2022-10-25T21:43:13.703Z,15.03
2022-10-25T21:45:42.358Z,15.04
2022-10-25T21:48:09.938Z,15.02
2022-10-25T21:50:38.805Z,15.05
2022-10-25T21:53:06.331Z,15.15
2022-10-25T21:55:33.896Z,15.15
2022-10-25T21:58:01.455Z,15.12
2022-10-25T22:00:29.000Z,15.09
2022-10-25T22:02:56.970Z,15.09
2022-10-25T22:05:24.645Z,15.08
2022-10-25T22:07:53.575Z,15.06
2022-10-25T22:10:21.174Z,15.08
2022-10-25T22:12:49.059Z,15.05
2022-10-25T22:15:17.325Z,15.03
2022-10-25T22:17:44.931Z,15.01
2022-10-25T22:20:12.746Z,15.08
2022-10-25T22:22:40.293Z,15.09
2022-10-25T22:25:09.772Z,15.10
2022-10-25T22:27:37.367Z,15.10
2022-10-25T22:30:05.442Z,15.07
2022-10-25T22:32:33.065Z,15.07
2022-10-25T22:35:00.641Z,15.07
2022-10-25T22:37:28.281Z,15.09
2022-10-25T22:39:55.875Z,15.14
2022-10-25T22:42:25.766Z,15.21
2022-10-25T22:44:53.328Z,15.27
2022-10-25T22:47:20.866Z,15.20
2022-10-25T22:49:48.560Z,15.13
2022-10-25T22:52:16.114Z,15.11
2022-10-25T22:54:43.780Z,15.10
2022-10-25T22:57:11.800Z,15.12
2022-10-25T22:59:40.696Z,15.20
2022-10-25T23:02:08.261Z,15.20
2022-10-25T23:04:35.897Z,15.16
2022-10-25T23:07:03.524Z,15.18
2022-10-25T23:09:31.146Z,15.16
2022-10-25T23:11:58.704Z,15.20
2022-10-25T23:14:26.313Z,15.19
2022-10-25T23:16:55.219Z,15.18
2022-10-25T23:19:22.793Z,15.21
2022-10-25T23:21:50.349Z,15.28
2022-10-25T23:24:18.066Z,15.28
2022-10-25T23:26:45.640Z,15.31
2022-10-25T23:29:13.726Z,15.31
2022-10-25T23:31:41.555Z,15.35
2022-10-25T23:34:11.381Z,15.43
2022-10-25T23:36:39.054Z,15.45
2022-10-25T23:39:08.372Z,15.47
2022-10-25T23:41:36.301Z,15.38
2022-10-25T23:44:04.088Z,15.42
2022-10-25T23:46:31.666Z,15.41
2022-10-25T23:48:59.491Z,15.37
2022-10-25T23:51:28.425Z,15.40
2022-10-25T23:53:56.062Z,15.40
2022-10-25T23:56:23.627Z,15.40
2022-10-25T23:58:53.387Z,15.36
